Theseus — 9HA4385 — position and weather

sailwx.info

Track history (hours):
 
Tides and Currents Weather Stations Pressure Air Temp Water Temp Dewpoint Dewpoint Depression Visibility Wind Speed Wind Dir Waves Ship Positions

Theseus

Last reported at 2018-Feb-19 08:30 UTC. Time now 2018-Feb-19 08:33 UTC.
Position N 51°58' E 001°17'.

Length 369 m; draft 13.6 m.

Type: Ship (hazmat cat A). MMSI: 249808000.

Date/timePositionNaut miles runAvg speedWind from/ knotsBaromVisibWave heightAir tempDewpointWater temp
2018-Feb-19 08:30N 51°58' E 001°17'0 0.0
2018-Feb-19 08:00N 51°58' E 001°17'0 0.0
2018-Feb-19 07:30N 51°58' E 001°17'0 0.0
2018-Feb-19 07:00N 51°58' E 001°17'0 0.0
2018-Feb-19 06:30N 51°58' E 001°17'1 1.5
2018-Feb-19 06:00N 51°57' E 001°18'2 4.9
2018-Feb-19 05:30N 51°56' E 001°21'510.6
2018-Feb-19 05:00N 51°56' E 001°29'3 5.6
2018-Feb-19 04:30N 51°55' E 001°33'4 8.7
2018-Feb-19 04:00N 51°52' E 001°37'3 6.9
2018-Feb-19 03:30N 51°51' E 001°43'3 6.2
2018-Feb-19 03:00N 51°55' E 001°42'0 0.1
2018-Feb-19 02:30N 51°55' E 001°42'0 0.1
2018-Feb-19 02:00N 51°55' E 001°42'0 0.3
2018-Feb-19 01:30N 51°55' E 001°42'0 0.1
2018-Feb-19 01:00N 51°54' E 001°42'0 0.0
2018-Feb-19 00:30N 51°54' E 001°42'0 0.0
2018-Feb-19 00:00N 51°54' E 001°42'0 0.0
2018-Feb-18 23:30N 51°54' E 001°42'0 0.0
2018-Feb-18 23:00N 51°54' E 001°42'0 0.0
2018-Feb-18 22:30N 51°54' E 001°42'0 0.1
2018-Feb-18 22:00N 51°54' E 001°42'0 0.0
2018-Feb-18 21:30N 51°54' E 001°42'0 0.0
2018-Feb-18 21:00N 51°54' E 001°42'0 0.2
2018-Feb-18 20:30N 51°55' E 001°42'0 0.4
2018-Feb-18 20:00N 51°55' E 001°42'0 0.1
2018-Feb-18 19:30N 51°55' E 001°42'0 0.1
2018-Feb-18 19:00N 51°55' E 001°42'0 0.0
2018-Feb-18 18:30N 51°55' E 001°42'0 0.0
2018-Feb-18 18:00N 51°55' E 001°42'0 0.0
2018-Feb-18 17:30N 51°55' E 001°42'0 0.0
2018-Feb-18 17:00N 51°55' E 001°42'0 0.1
2018-Feb-18 16:30N 51°55' E 001°42'3 5.6
2018-Feb-18 16:00N 51°53' E 001°46'510.7
2018-Feb-18 15:30N 51°49' E 001°52'4 9.0
2018-Feb-18 15:00N 51°51' E 001°59'5 9.3
2018-Feb-18 14:30N 51°53' E 002°06'5 9.8
2018-Feb-18 13:59N 51°55' E 002°13'510.1
2018-Feb-18 13:28N 51°57' E 002°21'510.3
2018-Feb-18 13:00N 51°58' E 002°29'610.7
2018-Feb-18 12:28N 51°60' E 002°38'1011.3
2018-Feb-18 11:37N 52°03' E 002°53'211.4
2018-Feb-18 11:24N 52°03' E 002°57'511.5
2018-Feb-18 11:00N 52°04' E 003°04'611.6
2018-Feb-18 10:30N 52°04' E 003°13'611.7
2018-Feb-18 10:00N 52°04' E 003°23'611.5
2018-Feb-18 09:31N 52°04' E 003°32'611.4
2018-Feb-18 09:00N 52°03' E 003°41'511.0
2018-Feb-18 08:31N 52°03' E 003°50'510.1
2018-Feb-18 08:00N 52°01' E 003°58'510.6
2018-Feb-18 07:30N 51°58' E 004°05'1 2.6
2018-Feb-18 07:00N 51°58' E 004°03'1 1.8
2018-Feb-18 06:31N 51°59' E 004°02'0 0.0
2018-Feb-18 05:58N 51°59' E 004°02'0 0.0
2018-Feb-18 05:28N 51°59' E 004°02'0 0.0
2018-Feb-18 04:58N 51°59' E 004°02'0 0.0
2018-Feb-18 04:28N 51°59' E 004°02'0 0.0
2018-Feb-18 03:58N 51°59' E 004°02'0 0.0
2018-Feb-18 03:28N 51°59' E 004°02'0 0.0
2018-Feb-18 02:58N 51°59' E 004°02'0 0.0
2018-Feb-18 02:28N 51°59' E 004°02'0 0.0
2018-Feb-18 01:58N 51°59' E 004°02'0 0.0
2018-Feb-18 01:28N 51°59' E 004°02'0 0.0
2018-Feb-18 00:58N 51°59' E 004°02'0 0.0
2018-Feb-18 00:29N 51°59' E 004°02'0 0.0
2018-Feb-17 23:59N 51°59' E 004°02'0 0.1
2018-Feb-17 23:29N 51°59' E 004°02'0 0.0
2018-Feb-17 22:59N 51°59' E 004°02'0 0.0
2018-Feb-17 22:29N 51°59' E 004°02'0 0.0
2018-Feb-17 21:59N 51°59' E 004°02'0 0.0
2018-Feb-17 21:29N 51°59' E 004°02'0 0.0
2018-Feb-17 20:59N 51°59' E 004°02'0 0.0
2018-Feb-17 20:29N 51°59' E 004°02'0 0.0
2018-Feb-17 19:59N 51°59' E 004°02'0 0.0
2018-Feb-17 19:29N 51°59' E 004°02'0 0.0
2018-Feb-17 18:56N 51°59' E 004°02'0 0.0
2018-Feb-17 18:29N 51°59' E 004°02'0 0.0
2018-Feb-17 17:59N 51°59' E 004°02'0 0.0
2018-Feb-17 17:29N 51°59' E 004°02'0 0.0
2018-Feb-17 16:59N 51°59' E 004°02'0 0.0
2018-Feb-17 16:29N 51°59' E 004°02'0 0.0
2018-Feb-17 15:59N 51°59' E 004°02'0 0.0
2018-Feb-17 15:29N 51°59' E 004°02'0 0.0
2018-Feb-17 14:59N 51°59' E 004°02'0 0.0
2018-Feb-17 14:29N 51°59' E 004°02'0 0.0
2018-Feb-17 13:59N 51°59' E 004°02'0 0.0
2018-Feb-17 13:29N 51°59' E 004°02'0 0.0
2018-Feb-17 12:59N 51°59' E 004°02'0 0.0
2018-Feb-17 12:29N 51°59' E 004°02'0 0.0
2018-Feb-17 11:59N 51°59' E 004°02'0 0.0
2018-Feb-17 11:29N 51°59' E 004°02'0 0.0
2018-Feb-17 10:59N 51°59' E 004°02'0 0.0
2018-Feb-17 10:29N 51°59' E 004°02'0 0.0
2018-Feb-17 09:59N 51°59' E 004°02'0 0.0
2018-Feb-17 09:29N 51°59' E 004°02'0 0.0
2018-Feb-17 08:59N 51°59' E 004°02'0 0.0
2018-Feb-17 08:29N 51°59' E 004°02'0 0.0
2018-Feb-17 07:59N 51°59' E 004°02'0 0.0
2018-Feb-17 07:29N 51°59' E 004°02'0 0.0
2018-Feb-17 06:59N 51°59' E 004°02'0 0.0
2018-Feb-17 06:29N 51°59' E 004°02'0 0.0
2018-Feb-17 05:59N 51°59' E 004°02'0 0.0
2018-Feb-17 05:29N 51°59' E 004°02'0 0.0
2018-Feb-17 04:59N 51°59' E 004°02'0 0.0
2018-Feb-17 04:29N 51°59' E 004°02'0 0.0
2018-Feb-17 03:59N 51°59' E 004°02'0 0.0
2018-Feb-17 03:29N 51°59' E 004°02'0 0.0
2018-Feb-17 02:59N 51°59' E 004°02'0 0.0
2018-Feb-17 02:26N 51°59' E 004°02'0 0.0
2018-Feb-17 01:59N 51°59' E 004°02'0 0.0
2018-Feb-17 01:29N 51°59' E 004°02'0 0.0
2018-Feb-17 00:59N 51°59' E 004°02'0 0.0
2018-Feb-17 00:29N 51°59' E 004°02'0 0.0
2018-Feb-16 23:59N 51°59' E 004°02'0 0.0
2018-Feb-16 23:29N 51°59' E 004°02'0 0.0
2018-Feb-16 22:59N 51°59' E 004°02'0 0.0
2018-Feb-16 22:29N 51°59' E 004°02'0 0.0
2018-Feb-16 21:59N 51°59' E 004°02'0 0.0
2018-Feb-16 21:29N 51°59' E 004°02'0 0.0
2018-Feb-16 20:59N 51°59' E 004°02'0 0.0
2018-Feb-16 20:29N 51°59' E 004°02'0 0.0
2018-Feb-16 19:59N 51°59' E 004°02'0 0.0
2018-Feb-16 19:29N 51°59' E 004°02'0 0.0
2018-Feb-16 18:59N 51°59' E 004°02'0 0.0
2018-Feb-16 18:29N 51°59' E 004°02'0 0.0
2018-Feb-16 17:59N 51°59' E 004°02'0 0.0
2018-Feb-16 17:29N 51°59' E 004°02'0 0.0
2018-Feb-16 16:59N 51°59' E 004°02'0 0.0
2018-Feb-16 16:29N 51°59' E 004°02'0 0.0
2018-Feb-16 15:59N 51°59' E 004°02'0 0.0
2018-Feb-16 15:29N 51°59' E 004°02'0 0.0
2018-Feb-16 14:59N 51°59' E 004°02'0 0.1
2018-Feb-16 14:31N 51°58' E 004°02'1 2.5
2018-Feb-16 14:01N 51°58' E 004°04'1 2.8
2018-Feb-16 13:31N 51°59' E 004°03'510.3
2018-Feb-16 13:01N 52°00' E 003°55'510.4
2018-Feb-16 12:30N 51°60' E 003°46'2 4.7
2018-Feb-16 12:01N 52°01' E 003°43'3 6.7
2018-Feb-16 11:30N 52°04' E 003°45'4 8.3
2018-Feb-16 11:01N 52°09' E 003°46'713.1
2018-Feb-16 10:31N 52°15' E 003°47'712.8
2018-Feb-16 10:00N 52°22' E 003°48'612.5
2018-Feb-16 09:30N 52°28' E 003°50'713.4
2018-Feb-16 09:00N 52°34' E 003°52'713.6
2018-Feb-16 08:30N 52°41' E 003°55'714.8
2018-Feb-16 08:00N 52°48' E 003°57'815.0
2018-Feb-16 07:30N 52°55' E 003°59'713.3
2018-Feb-16 07:00N 53°00' E 004°07'612.1
2018-Feb-16 06:29N 53°04' E 004°15'510.9
2018-Feb-16 05:59N 53°08' E 004°22'510.4
2018-Feb-16 05:28N 53°12' E 004°27'510.9
2018-Feb-16 05:00N 53°17' E 004°30'510.7
2018-Feb-16 04:29N 53°22' E 004°33'510.6
2018-Feb-16 03:59N 53°27' E 004°37'511.1
2018-Feb-16 03:30N 53°29' E 004°45'9012.0
2018-Feb-15 20:01N 53°57' E 007°10'010.1
2018-Feb-15 19:58N 53°57' E 007°10'510.1
2018-Feb-15 19:30N 53°59' E 007°18'7 9.9
2018-Feb-15 18:50N 54°00' E 007°29'710.2
2018-Feb-15 18:07N 54°02' E 007°41'110.2
2018-Feb-15 17:59N 54°02' E 007°43'510.6
2018-Feb-15 17:30N 54°02' E 007°52'610.6
2018-Feb-15 16:54N 54°01' E 008°03'410.9
2018-Feb-15 16:30N 54°01' E 008°10'1014.2
2018-Feb-15 15:47N 53°59' E 008°27'517.2
2018-Feb-15 15:30N 53°58' E 008°35'815.1
2018-Feb-15 15:00N 53°52' E 008°44'713.3
2018-Feb-15 14:31N 53°51' E 008°55'714.0
2018-Feb-15 14:00N 53°53' E 009°06'510.5
2018-Feb-15 13:30N 53°53' E 009°15'612.2
2018-Feb-15 13:00N 53°48' E 009°22'511.0
2018-Feb-15 12:30N 53°44' E 009°27'5 9.8
2018-Feb-15 12:01N 53°39' E 009°31'5 9.5
2018-Feb-15 11:30N 53°36' E 009°36'5 9.1
2018-Feb-15 11:00N 53°34' E 009°43'4 8.4
2018-Feb-15 10:31N 53°33' E 009°50'4 7.2
2018-Feb-15 10:00N 53°32' E 009°56'1 1.8
2018-Feb-15 09:30N 53°32' E 009°57'0 0.0
2018-Feb-15 08:58N 53°32' E 009°57'0 0.0
2018-Feb-15 08:28N 53°32' E 009°57'0 0.0
2018-Feb-15 07:58N 53°32' E 009°57'0 0.0
2018-Feb-15 07:28N 53°32' E 009°57'0 0.0
2018-Feb-15 06:58N 53°32' E 009°57'0 0.0
2018-Feb-15 06:28N 53°32' E 009°57'0 0.0
2018-Feb-15 05:58N 53°32' E 009°57'0 0.0
2018-Feb-15 05:28N 53°32' E 009°57'0 0.0
2018-Feb-15 04:58N 53°32' E 009°57'0 0.0
2018-Feb-15 04:28N 53°32' E 009°57'0 0.0
2018-Feb-15 03:58N 53°32' E 009°57'0 0.0
2018-Feb-15 03:28N 53°32' E 009°57'0 0.0
2018-Feb-15 02:58N 53°32' E 009°57'0 0.0
2018-Feb-15 02:28N 53°32' E 009°57'0 0.0
2018-Feb-15 01:58N 53°32' E 009°57'0 0.0
2018-Feb-15 01:28N 53°32' E 009°57'0 0.0
2018-Feb-15 00:58N 53°32' E 009°57'0 0.0
2018-Feb-15 00:28N 53°32' E 009°57'0 0.0
2018-Feb-14 23:58N 53°32' E 009°57'0 0.0
2018-Feb-14 23:28N 53°32' E 009°57'0 0.0
2018-Feb-14 22:58N 53°32' E 009°57'0 0.0
2018-Feb-14 22:28N 53°32' E 009°57'0 0.0
2018-Feb-14 21:58N 53°32' E 009°57'0 0.0
2018-Feb-14 21:28N 53°32' E 009°57'0 0.0
2018-Feb-14 20:58N 53°32' E 009°57'0 0.0
2018-Feb-14 20:28N 53°32' E 009°57'0 0.0
2018-Feb-14 19:58N 53°32' E 009°57'0 0.0
2018-Feb-14 19:28N 53°32' E 009°57'0 0.0
2018-Feb-14 18:58N 53°32' E 009°57'0 0.0
2018-Feb-14 18:28N 53°32' E 009°57'0 0.0
2018-Feb-14 17:58N 53°32' E 009°57'0 0.0
2018-Feb-14 17:28N 53°32' E 009°57'0 0.0
2018-Feb-14 16:58N 53°32' E 009°57'0 0.0
2018-Feb-14 16:28N 53°32' E 009°57'0 0.0
2018-Feb-14 15:58N 53°32' E 009°57'0 0.0
2018-Feb-14 15:28N 53°32' E 009°57'0 0.0
2018-Feb-14 14:58N 53°32' E 009°57'0 0.0
2018-Feb-14 14:28N 53°32' E 009°57'0 0.0
2018-Feb-14 13:58N 53°32' E 009°57'0 0.0
2018-Feb-14 13:28N 53°32' E 009°57'0 0.0
2018-Feb-14 12:58N 53°32' E 009°57'0 0.0
2018-Feb-14 12:28N 53°32' E 009°57'0 0.0
2018-Feb-14 11:58N 53°32' E 009°57'0 0.0
2018-Feb-14 11:28N 53°32' E 009°57'0 0.0
2018-Feb-14 10:58N 53°32' E 009°57'0 0.0
2018-Feb-14 10:28N 53°32' E 009°57'0 0.0
2018-Feb-14 09:58N 53°32' E 009°57'0 0.0
2018-Feb-14 09:28N 53°32' E 009°57'0 0.0
2018-Feb-14 08:58N 53°32' E 009°57'0 0.0
2018-Feb-14 08:28N 53°32' E 009°57'0 0.1
2018-Feb-14 07:58N 53°32' E 009°57'0 0.1
2018-Feb-14 07:28N 53°32' E 009°57'0 0.0
2018-Feb-14 06:58N 53°32' E 009°57'0 0.0
2018-Feb-14 06:28N 53°32' E 009°57'0 0.0
2018-Feb-14 05:58N 53°32' E 009°57'0 0.0
2018-Feb-14 05:28N 53°32' E 009°57'0 0.0
2018-Feb-14 04:58N 53°32' E 009°57'0 0.0
2018-Feb-14 04:28N 53°32' E 009°57'0 0.0
2018-Feb-14 03:58N 53°32' E 009°57'0 0.0
2018-Feb-14 03:28N 53°32' E 009°57'0 0.0
2018-Feb-14 02:58N 53°32' E 009°57'0 0.0
2018-Feb-14 02:28N 53°32' E 009°57'0 0.0
2018-Feb-14 01:58N 53°32' E 009°57'0 0.1
2018-Feb-14 01:28N 53°32' E 009°57'0 0.0
2018-Feb-14 00:58N 53°32' E 009°57'0 0.1
2018-Feb-14 00:28N 53°32' E 009°57'0 0.0
2018-Feb-13 23:58N 53°32' E 009°57'0 0.0
2018-Feb-13 23:28N 53°32' E 009°57'0 0.0
2018-Feb-13 22:58N 53°32' E 009°57'0 0.0
2018-Feb-13 22:28N 53°32' E 009°57'0 0.0
2018-Feb-13 21:58N 53°32' E 009°57'0 0.0
2018-Feb-13 21:28N 53°32' E 009°57'0 0.1
2018-Feb-13 20:58N 53°32' E 009°57'0 0.0
2018-Feb-13 20:28N 53°32' E 009°57'0 0.0
2018-Feb-13 19:58N 53°32' E 009°57'0 0.0
2018-Feb-13 19:28N 53°32' E 009°57'0 0.0
2018-Feb-13 18:58N 53°32' E 009°57'0 0.0
2018-Feb-13 18:28N 53°32' E 009°57'0 0.0
2018-Feb-13 17:58N 53°32' E 009°57'0 0.0
2018-Feb-13 17:28N 53°32' E 009°57'0 0.0
2018-Feb-13 16:58N 53°32' E 009°57'0 0.0
2018-Feb-13 16:28N 53°32' E 009°57'0 0.0
2018-Feb-13 15:58N 53°32' E 009°57'0 0.1
2018-Feb-13 15:30N 53°32' E 009°57'1 1.3
2018-Feb-13 15:00N 53°32' E 009°57'3 5.9
2018-Feb-13 14:30N 53°33' E 009°52'4 8.5
2018-Feb-13 14:00N 53°34' E 009°45'510.8
2018-Feb-13 13:30N 53°36' E 009°36'611.3
2018-Feb-13 13:00N 53°40' E 009°31'612.6
2018-Feb-13 12:31N 53°45' E 009°24'714.8
2018-Feb-13 12:01N 53°52' E 009°18'612.7
2018-Feb-13 11:30N 53°53' E 009°07'713.1
2018-Feb-13 11:01N 53°51' E 008°57'713.8
2018-Feb-13 10:30N 53°51' E 008°45'713.8
2018-Feb-13 10:00N 53°57' E 008°38'918.2
2018-Feb-13 09:30N 53°59' E 008°23'918.3
2018-Feb-13 09:00N 53°59' E 008°08'917.6
2018-Feb-13 08:31N 54°03' E 007°54'11215.1
2018-Feb-13 01:04N 53°37' E 004°49'516.7
2018-Feb-13 00:46N 53°32' E 004°46'416.5
2018-Feb-13 00:30N 53°28' E 004°43'816.4
2018-Feb-13 00:00N 53°20' E 004°38'816.1
2018-Feb-12 23:30N 53°13' E 004°32'815.5
2018-Feb-12 23:00N 53°06' E 004°26'815.2
2018-Feb-12 22:30N 52°60' E 004°19'815.0
2018-Feb-12 22:00N 52°53' E 004°15'815.1
2018-Feb-12 21:30N 52°47' E 004°07'815.0
2018-Feb-12 21:00N 52°42' E 003°58'815.2
2018-Feb-12 20:30N 52°38' E 003°48'714.5
2018-Feb-12 20:00N 52°32' E 003°39'714.7
2018-Feb-12 19:30N 52°25' E 003°35'714.8
2018-Feb-12 19:00N 52°19' E 003°31'814.8
2018-Feb-12 18:30N 52°11' E 003°26'714.6
2018-Feb-12 18:00N 52°04' E 003°24'1414.9
2018-Feb-12 17:04N 51°51' E 003°20'115.7
2018-Feb-12 17:00N 51°50' E 003°19'713.8
2018-Feb-12 16:30N 51°44' E 003°14'5 9.6
2018-Feb-12 16:00N 51°39' E 003°12'917.3
2018-Feb-12 15:30N 51°31' E 003°06'815.7
2018-Feb-12 15:00N 51°25' E 002°59'917.4
2018-Feb-12 14:30N 51°24' E 003°13'918.1
2018-Feb-12 14:00N 51°25' E 003°28'611.5
2018-Feb-12 13:30N 51°26' E 003°37'4 8.9
2018-Feb-12 13:00N 51°24' E 003°43'612.5
2018-Feb-12 12:30N 51°21' E 003°52'612.3
2018-Feb-12 12:00N 51°26' E 003°58'4 8.0
2018-Feb-12 11:30N 51°23' E 004°03'611.1
2018-Feb-12 11:00N 51°24' E 004°11'5 9.1
2018-Feb-12 10:30N 51°20' E 004°16'3 4.7
2018-Feb-12 09:52N 51°17' E 004°16'0 0.0
2018-Feb-12 09:28N 51°17' E 004°16'0 0.0
2018-Feb-12 08:58N 51°17' E 004°16'0 0.0
2018-Feb-12 08:28N 51°17' E 004°16'0 0.0
2018-Feb-12 07:58N 51°17' E 004°16'0 0.0
2018-Feb-12 07:28N 51°17' E 004°16'0 0.0
2018-Feb-12 06:55N 51°17' E 004°16'0 0.0
2018-Feb-12 06:28N 51°17' E 004°16'0 0.0
2018-Feb-12 05:58N 51°17' E 004°16'0 0.0
2018-Feb-12 05:28N 51°17' E 004°16'0 0.0
2018-Feb-12 04:58N 51°17' E 004°16'0 0.0
2018-Feb-12 04:25N 51°17' E 004°16'0 0.0
2018-Feb-12 03:58N 51°17' E 004°16'0 0.0
2018-Feb-12 03:28N 51°17' E 004°16'0 0.0
2018-Feb-12 02:58N 51°17' E 004°16'0 0.0
2018-Feb-12 02:22N 51°17' E 004°16'0 0.0
2018-Feb-12 01:58N 51°17' E 004°16'0 0.0
2018-Feb-12 01:25N 51°17' E 004°16'0 0.0
2018-Feb-12 00:55N 51°17' E 004°16'0 0.0
2018-Feb-12 00:28N 51°17' E 004°16'0 0.0
2018-Feb-11 23:58N 51°17' E 004°16'0 0.0
2018-Feb-11 23:25N 51°17' E 004°16'0 0.0
2018-Feb-11 22:55N 51°17' E 004°16'0 0.0
2018-Feb-11 22:28N 51°17' E 004°16'0 0.0
2018-Feb-11 21:58N 51°17' E 004°16'0 0.0
2018-Feb-11 21:25N 51°17' E 004°16'0 0.0
2018-Feb-11 20:58N 51°17' E 004°16'0 0.0
2018-Feb-11 20:25N 51°17' E 004°16'0 0.0
2018-Feb-11 19:58N 51°17' E 004°16'0 0.0
2018-Feb-11 19:28N 51°17' E 004°16'0 0.0
2018-Feb-11 18:58N 51°17' E 004°16'0 0.0
2018-Feb-11 18:28N 51°17' E 004°16'0 0.0
2018-Feb-11 17:58N 51°17' E 004°16'0 0.0
2018-Feb-11 17:28N 51°17' E 004°16'0 0.0
2018-Feb-11 16:55N 51°17' E 004°16'0 0.0
2018-Feb-11 16:28N 51°17' E 004°16'0 0.0
2018-Feb-11 15:55N 51°17' E 004°16'0 0.0
2018-Feb-11 15:28N 51°17' E 004°16'0 0.0
2018-Feb-11 14:55N 51°17' E 004°16'0 0.0
2018-Feb-11 14:28N 51°17' E 004°16'0 0.0
2018-Feb-11 13:58N 51°17' E 004°16'0 0.0
2018-Feb-11 13:28N 51°17' E 004°16'0 0.0
2018-Feb-11 12:58N 51°17' E 004°16'0 0.0
2018-Feb-11 12:28N 51°17' E 004°16'0 0.0
2018-Feb-11 11:58N 51°17' E 004°16'0 0.0
2018-Feb-11 11:28N 51°17' E 004°16'0 0.0
2018-Feb-11 10:55N 51°17' E 004°16'0 0.0
2018-Feb-11 10:25N 51°17' E 004°16'0 0.1
2018-Feb-11 09:58N 51°17' E 004°16'0 0.1
2018-Feb-11 09:28N 51°17' E 004°16'0 0.0
2018-Feb-11 08:55N 51°17' E 004°16'0 0.0
2018-Feb-11 08:28N 51°17' E 004°16'0 0.0
2018-Feb-11 07:58N 51°17' E 004°16'0 0.0
2018-Feb-11 07:28N 51°17' E 004°16'0 0.0
2018-Feb-11 06:58N 51°17' E 004°16'0 0.0
2018-Feb-11 06:28N 51°17' E 004°16'0 0.0
2018-Feb-11 05:58N 51°17' E 004°16'0 0.0
2018-Feb-11 05:28N 51°17' E 004°16'0 0.0
2018-Feb-11 04:58N 51°17' E 004°16'0 0.0
2018-Feb-11 04:28N 51°17' E 004°16'0 0.0
2018-Feb-11 03:58N 51°17' E 004°16'0 0.0
2018-Feb-11 03:28N 51°17' E 004°16'0 0.0
2018-Feb-11 02:58N 51°17' E 004°16'0 0.0
2018-Feb-11 02:28N 51°17' E 004°16'0 0.0
2018-Feb-11 01:58N 51°17' E 004°16'0 0.0
2018-Feb-11 01:28N 51°17' E 004°16'0 0.0
2018-Feb-11 00:52N 51°17' E 004°16'0 0.0
2018-Feb-11 00:30N 51°17' E 004°16'1 1.7
2018-Feb-11 00:00N 51°18' E 004°16'1 2.8
2018-Feb-10 23:30N 51°20' E 004°16'4 7.5
2018-Feb-10 23:00N 51°23' E 004°13'5 9.3
2018-Feb-10 22:30N 51°22' E 004°05'5 9.7
2018-Feb-10 22:00N 51°26' E 004°01'611.2
2018-Feb-10 21:30N 51°22' E 003°55'612.2
2018-Feb-10 21:00N 51°22' E 003°45'611.4
2018-Feb-10 20:31N 51°26' E 003°39'4 8.6
2018-Feb-10 20:01N 51°25' E 003°33'5 9.9
2018-Feb-10 19:30N 51°25' E 003°25'612.0
2018-Feb-10 19:00N 51°25' E 003°15'713.8
2018-Feb-10 18:30N 51°24' E 003°04'714.4
2018-Feb-10 18:00N 51°25' E 002°53'612.6
2018-Feb-10 17:31N 51°23' E 002°43'5 8.4
2018-Feb-10 16:58N 51°22' E 002°36'2 3.5
2018-Feb-10 16:30N 51°22' E 002°34'1 1.9
2018-Feb-10 16:01N 51°22' E 002°32'3 5.9
2018-Feb-10 15:30N 51°22' E 002°28'4 8.5
2018-Feb-10 15:01N 51°20' E 002°22'4 8.9
2018-Feb-10 14:30N 51°17' E 002°16'4 8.6
2018-Feb-10 14:00N 51°15' E 002°10'5 9.1
2018-Feb-10 13:30N 51°13' E 002°03'510.6
2018-Feb-10 13:00N 51°11' E 001°56'612.5
2018-Feb-10 12:30N 51°08' E 001°47'612.8
2018-Feb-10 12:00N 51°03' E 001°40'613.0
2018-Feb-10 11:30N 50°59' E 001°33'612.9
2018-Feb-10 11:00N 50°53' E 001°27'713.0
2018-Feb-10 10:30N 50°47' E 001°24'712.8
2018-Feb-10 09:59N 50°41' E 001°19'713.6
2018-Feb-10 09:30N 50°36' E 001°12'3713.5
2018-Feb-10 06:47N 50°23' E 000°19'414.2
2018-Feb-10 06:28N 50°22' E 000°12'714.5
2018-Feb-10 06:00N 50°20' E 000°02'816.3
2018-Feb-10 05:30N 50°18' W 000°11'816.6
2018-Feb-10 05:00N 50°16' W 000°23'816.8
2018-Feb-10 04:30N 50°13' W 000°36'817.0
2018-Feb-10 04:00N 50°11' W 000°49'917.1
2018-Feb-10 03:31N 50°09' W 001°01'917.1
2018-Feb-10 03:00N 50°07' W 001°14'917.1
2018-Feb-10 02:31N 50°05' W 001°27'816.9
2018-Feb-10 02:00N 50°03' W 001°40'816.8
2018-Feb-10 01:30N 50°01' W 001°53'816.5
2018-Feb-10 01:01N 49°59' W 002°05'816.1
2018-Feb-10 00:30N 49°57' W 002°17'3215.5
2018-Feb-09 22:27N 49°47' W 003°04'1415.2
2018-Feb-09 21:30N 49°39' W 003°23'6714.9
2018-Feb-09 17:00N 49°04' W 004°51'  
Track history (hours):
 
Tides and Currents Weather Stations Pressure Air Temp Water Temp Dewpoint Dewpoint Depression Visibility Wind Speed Wind Dir Waves Ship Positions

Theseus

Last reported at 2018-Feb-19 08:30 UTC. Time now 2018-Feb-19 08:33 UTC.
Position N 51°58' E 001°17'.

Length 369 m; draft 13.6 m.

Type: Ship (hazmat cat A). MMSI: 249808000.

Date/timePositionNaut miles runAvg speedWind from/ knotsBaromVisibWave heightAir tempDewpointWater temp
2018-Feb-19 08:30N 51°58' E 001°17'0 0.0
2018-Feb-19 08:00N 51°58' E 001°17'0 0.0
2018-Feb-19 07:30N 51°58' E 001°17'0 0.0
2018-Feb-19 07:00N 51°58' E 001°17'0 0.0
2018-Feb-19 06:30N 51°58' E 001°17'1 1.5
2018-Feb-19 06:00N 51°57' E 001°18'2 4.9
2018-Feb-19 05:30N 51°56' E 001°21'510.6
2018-Feb-19 05:00N 51°56' E 001°29'3 5.6
2018-Feb-19 04:30N 51°55' E 001°33'4 8.7
2018-Feb-19 04:00N 51°52' E 001°37'3 6.9
2018-Feb-19 03:30N 51°51' E 001°43'3 6.2
2018-Feb-19 03:00N 51°55' E 001°42'0 0.1
2018-Feb-19 02:30N 51°55' E 001°42'0 0.1
2018-Feb-19 02:00N 51°55' E 001°42'0 0.3
2018-Feb-19 01:30N 51°55' E 001°42'0 0.1
2018-Feb-19 01:00N 51°54' E 001°42'0 0.0
2018-Feb-19 00:30N 51°54' E 001°42'0 0.0
2018-Feb-19 00:00N 51°54' E 001°42'0 0.0
2018-Feb-18 23:30N 51°54' E 001°42'0 0.0
2018-Feb-18 23:00N 51°54' E 001°42'0 0.0
2018-Feb-18 22:30N 51°54' E 001°42'0 0.1
2018-Feb-18 22:00N 51°54' E 001°42'0 0.0
2018-Feb-18 21:30N 51°54' E 001°42'0 0.0
2018-Feb-18 21:00N 51°54' E 001°42'0 0.2
2018-Feb-18 20:30N 51°55' E 001°42'0 0.4
2018-Feb-18 20:00N 51°55' E 001°42'0 0.1
2018-Feb-18 19:30N 51°55' E 001°42'0 0.1
2018-Feb-18 19:00N 51°55' E 001°42'0 0.0
2018-Feb-18 18:30N 51°55' E 001°42'0 0.0
2018-Feb-18 18:00N 51°55' E 001°42'0 0.0
2018-Feb-18 17:30N 51°55' E 001°42'0 0.0
2018-Feb-18 17:00N 51°55' E 001°42'0 0.1
2018-Feb-18 16:30N 51°55' E 001°42'3 5.6
2018-Feb-18 16:00N 51°53' E 001°46'510.7
2018-Feb-18 15:30N 51°49' E 001°52'4 9.0
2018-Feb-18 15:00N 51°51' E 001°59'5 9.3
2018-Feb-18 14:30N 51°53' E 002°06'5 9.8
2018-Feb-18 13:59N 51°55' E 002°13'510.1
2018-Feb-18 13:28N 51°57' E 002°21'510.3
2018-Feb-18 13:00N 51°58' E 002°29'610.7
2018-Feb-18 12:28N 51°60' E 002°38'1011.3
2018-Feb-18 11:37N 52°03' E 002°53'211.4
2018-Feb-18 11:24N 52°03' E 002°57'511.5
2018-Feb-18 11:00N 52°04' E 003°04'611.6
2018-Feb-18 10:30N 52°04' E 003°13'611.7
2018-Feb-18 10:00N 52°04' E 003°23'611.5
2018-Feb-18 09:31N 52°04' E 003°32'611.4
2018-Feb-18 09:00N 52°03' E 003°41'511.0
2018-Feb-18 08:31N 52°03' E 003°50'510.1
2018-Feb-18 08:00N 52°01' E 003°58'510.6
2018-Feb-18 07:30N 51°58' E 004°05'1 2.6
2018-Feb-18 07:00N 51°58' E 004°03'1 1.8
2018-Feb-18 06:31N 51°59' E 004°02'0 0.0
2018-Feb-18 05:58N 51°59' E 004°02'0 0.0
2018-Feb-18 05:28N 51°59' E 004°02'0 0.0
2018-Feb-18 04:58N 51°59' E 004°02'0 0.0
2018-Feb-18 04:28N 51°59' E 004°02'0 0.0
2018-Feb-18 03:58N 51°59' E 004°02'0 0.0
2018-Feb-18 03:28N 51°59' E 004°02'0 0.0
2018-Feb-18 02:58N 51°59' E 004°02'0 0.0
2018-Feb-18 02:28N 51°59' E 004°02'0 0.0
2018-Feb-18 01:58N 51°59' E 004°02'0 0.0
2018-Feb-18 01:28N 51°59' E 004°02'0 0.0
2018-Feb-18 00:58N 51°59' E 004°02'0 0.0
2018-Feb-18 00:29N 51°59' E 004°02'0 0.0
2018-Feb-17 23:59N 51°59' E 004°02'0 0.1
2018-Feb-17 23:29N 51°59' E 004°02'0 0.0
2018-Feb-17 22:59N 51°59' E 004°02'0 0.0
2018-Feb-17 22:29N 51°59' E 004°02'0 0.0
2018-Feb-17 21:59N 51°59' E 004°02'0 0.0
2018-Feb-17 21:29N 51°59' E 004°02'0 0.0
2018-Feb-17 20:59N 51°59' E 004°02'0 0.0
2018-Feb-17 20:29N 51°59' E 004°02'0 0.0
2018-Feb-17 19:59N 51°59' E 004°02'0 0.0
2018-Feb-17 19:29N 51°59' E 004°02'0 0.0
2018-Feb-17 18:56N 51°59' E 004°02'0 0.0
2018-Feb-17 18:29N 51°59' E 004°02'0 0.0
2018-Feb-17 17:59N 51°59' E 004°02'0 0.0
2018-Feb-17 17:29N 51°59' E 004°02'0 0.0
2018-Feb-17 16:59N 51°59' E 004°02'0 0.0
2018-Feb-17 16:29N 51°59' E 004°02'0 0.0
2018-Feb-17 15:59N 51°59' E 004°02'0 0.0
2018-Feb-17 15:29N 51°59' E 004°02'0 0.0
2018-Feb-17 14:59N 51°59' E 004°02'0 0.0
2018-Feb-17 14:29N 51°59' E 004°02'0 0.0
2018-Feb-17 13:59N 51°59' E 004°02'0 0.0
2018-Feb-17 13:29N 51°59' E 004°02'0 0.0
2018-Feb-17 12:59N 51°59' E 004°02'0 0.0
2018-Feb-17 12:29N 51°59' E 004°02'0 0.0
2018-Feb-17 11:59N 51°59' E 004°02'0 0.0
2018-Feb-17 11:29N 51°59' E 004°02'0 0.0
2018-Feb-17 10:59N 51°59' E 004°02'0 0.0
2018-Feb-17 10:29N 51°59' E 004°02'0 0.0
2018-Feb-17 09:59N 51°59' E 004°02'0 0.0
2018-Feb-17 09:29N 51°59' E 004°02'0 0.0
2018-Feb-17 08:59N 51°59' E 004°02'0 0.0
2018-Feb-17 08:29N 51°59' E 004°02'0 0.0
2018-Feb-17 07:59N 51°59' E 004°02'0 0.0
2018-Feb-17 07:29N 51°59' E 004°02'0 0.0
2018-Feb-17 06:59N 51°59' E 004°02'0 0.0
2018-Feb-17 06:29N 51°59' E 004°02'0 0.0
2018-Feb-17 05:59N 51°59' E 004°02'0 0.0
2018-Feb-17 05:29N 51°59' E 004°02'0 0.0
2018-Feb-17 04:59N 51°59' E 004°02'0 0.0
2018-Feb-17 04:29N 51°59' E 004°02'0 0.0
2018-Feb-17 03:59N 51°59' E 004°02'0 0.0
2018-Feb-17 03:29N 51°59' E 004°02'0 0.0
2018-Feb-17 02:59N 51°59' E 004°02'0 0.0
2018-Feb-17 02:26N 51°59' E 004°02'0 0.0
2018-Feb-17 01:59N 51°59' E 004°02'0 0.0
2018-Feb-17 01:29N 51°59' E 004°02'0 0.0
2018-Feb-17 00:59N 51°59' E 004°02'0 0.0
2018-Feb-17 00:29N 51°59' E 004°02'0 0.0
2018-Feb-16 23:59N 51°59' E 004°02'0 0.0
2018-Feb-16 23:29N 51°59' E 004°02'0 0.0
2018-Feb-16 22:59N 51°59' E 004°02'0 0.0
2018-Feb-16 22:29N 51°59' E 004°02'0 0.0
2018-Feb-16 21:59N 51°59' E 004°02'0 0.0
2018-Feb-16 21:29N 51°59' E 004°02'0 0.0
2018-Feb-16 20:59N 51°59' E 004°02'0 0.0
2018-Feb-16 20:29N 51°59' E 004°02'0 0.0
2018-Feb-16 19:59N 51°59' E 004°02'0 0.0
2018-Feb-16 19:29N 51°59' E 004°02'0 0.0
2018-Feb-16 18:59N 51°59' E 004°02'0 0.0
2018-Feb-16 18:29N 51°59' E 004°02'0 0.0
2018-Feb-16 17:59N 51°59' E 004°02'0 0.0
2018-Feb-16 17:29N 51°59' E 004°02'0 0.0
2018-Feb-16 16:59N 51°59' E 004°02'0 0.0
2018-Feb-16 16:29N 51°59' E 004°02'0 0.0
2018-Feb-16 15:59N 51°59' E 004°02'0 0.0
2018-Feb-16 15:29N 51°59' E 004°02'0 0.0
2018-Feb-16 14:59N 51°59' E 004°02'0 0.1
2018-Feb-16 14:31N 51°58' E 004°02'1 2.5
2018-Feb-16 14:01N 51°58' E 004°04'1 2.8
2018-Feb-16 13:31N 51°59' E 004°03'510.3
2018-Feb-16 13:01N 52°00' E 003°55'510.4
2018-Feb-16 12:30N 51°60' E 003°46'2 4.7
2018-Feb-16 12:01N 52°01' E 003°43'3 6.7
2018-Feb-16 11:30N 52°04' E 003°45'4 8.3
2018-Feb-16 11:01N 52°09' E 003°46'713.1
2018-Feb-16 10:31N 52°15' E 003°47'712.8
2018-Feb-16 10:00N 52°22' E 003°48'612.5
2018-Feb-16 09:30N 52°28' E 003°50'713.4
2018-Feb-16 09:00N 52°34' E 003°52'713.6
2018-Feb-16 08:30N 52°41' E 003°55'714.8
2018-Feb-16 08:00N 52°48' E 003°57'815.0
2018-Feb-16 07:30N 52°55' E 003°59'713.3
2018-Feb-16 07:00N 53°00' E 004°07'612.1
2018-Feb-16 06:29N 53°04' E 004°15'510.9
2018-Feb-16 05:59N 53°08' E 004°22'510.4
2018-Feb-16 05:28N 53°12' E 004°27'510.9
2018-Feb-16 05:00N 53°17' E 004°30'510.7
2018-Feb-16 04:29N 53°22' E 004°33'510.6
2018-Feb-16 03:59N 53°27' E 004°37'511.1
2018-Feb-16 03:30N 53°29' E 004°45'9012.0
2018-Feb-15 20:01N 53°57' E 007°10'010.1
2018-Feb-15 19:58N 53°57' E 007°10'510.1
2018-Feb-15 19:30N 53°59' E 007°18'7 9.9
2018-Feb-15 18:50N 54°00' E 007°29'710.2
2018-Feb-15 18:07N 54°02' E 007°41'110.2
2018-Feb-15 17:59N 54°02' E 007°43'510.6
2018-Feb-15 17:30N 54°02' E 007°52'610.6
2018-Feb-15 16:54N 54°01' E 008°03'410.9
2018-Feb-15 16:30N 54°01' E 008°10'1014.2
2018-Feb-15 15:47N 53°59' E 008°27'517.2
2018-Feb-15 15:30N 53°58' E 008°35'815.1
2018-Feb-15 15:00N 53°52' E 008°44'713.3
2018-Feb-15 14:31N 53°51' E 008°55'714.0
2018-Feb-15 14:00N 53°53' E 009°06'510.5
2018-Feb-15 13:30N 53°53' E 009°15'612.2
2018-Feb-15 13:00N 53°48' E 009°22'511.0
2018-Feb-15 12:30N 53°44' E 009°27'5 9.8
2018-Feb-15 12:01N 53°39' E 009°31'5 9.5
2018-Feb-15 11:30N 53°36' E 009°36'5 9.1
2018-Feb-15 11:00N 53°34' E 009°43'4 8.4
2018-Feb-15 10:31N 53°33' E 009°50'4 7.2
2018-Feb-15 10:00N 53°32' E 009°56'1 1.8
2018-Feb-15 09:30N 53°32' E 009°57'0 0.0
2018-Feb-15 08:58N 53°32' E 009°57'0 0.0
2018-Feb-15 08:28N 53°32' E 009°57'0 0.0
2018-Feb-15 07:58N 53°32' E 009°57'0 0.0
2018-Feb-15 07:28N 53°32' E 009°57'0 0.0
2018-Feb-15 06:58N 53°32' E 009°57'0 0.0
2018-Feb-15 06:28N 53°32' E 009°57'0 0.0
2018-Feb-15 05:58N 53°32' E 009°57'0 0.0
2018-Feb-15 05:28N 53°32' E 009°57'0 0.0
2018-Feb-15 04:58N 53°32' E 009°57'0 0.0
2018-Feb-15 04:28N 53°32' E 009°57'0 0.0
2018-Feb-15 03:58N 53°32' E 009°57'0 0.0
2018-Feb-15 03:28N 53°32' E 009°57'0 0.0
2018-Feb-15 02:58N 53°32' E 009°57'0 0.0
2018-Feb-15 02:28N 53°32' E 009°57'0 0.0
2018-Feb-15 01:58N 53°32' E 009°57'0 0.0
2018-Feb-15 01:28N 53°32' E 009°57'0 0.0
2018-Feb-15 00:58N 53°32' E 009°57'0 0.0
2018-Feb-15 00:28N 53°32' E 009°57'0 0.0
2018-Feb-14 23:58N 53°32' E 009°57'0 0.0
2018-Feb-14 23:28N 53°32' E 009°57'0 0.0
2018-Feb-14 22:58N 53°32' E 009°57'0 0.0
2018-Feb-14 22:28N 53°32' E 009°57'0 0.0
2018-Feb-14 21:58N 53°32' E 009°57'0 0.0
2018-Feb-14 21:28N 53°32' E 009°57'0 0.0
2018-Feb-14 20:58N 53°32' E 009°57'0 0.0
2018-Feb-14 20:28N 53°32' E 009°57'0 0.0
2018-Feb-14 19:58N 53°32' E 009°57'0 0.0
2018-Feb-14 19:28N 53°32' E 009°57'0 0.0
2018-Feb-14 18:58N 53°32' E 009°57'0 0.0
2018-Feb-14 18:28N 53°32' E 009°57'0 0.0
2018-Feb-14 17:58N 53°32' E 009°57'0 0.0
2018-Feb-14 17:28N 53°32' E 009°57'0 0.0
2018-Feb-14 16:58N 53°32' E 009°57'0 0.0
2018-Feb-14 16:28N 53°32' E 009°57'0 0.0
2018-Feb-14 15:58N 53°32' E 009°57'0 0.0
2018-Feb-14 15:28N 53°32' E 009°57'0 0.0
2018-Feb-14 14:58N 53°32' E 009°57'0 0.0
2018-Feb-14 14:28N 53°32' E 009°57'0 0.0
2018-Feb-14 13:58N 53°32' E 009°57'0 0.0
2018-Feb-14 13:28N 53°32' E 009°57'0 0.0
2018-Feb-14 12:58N 53°32' E 009°57'0 0.0
2018-Feb-14 12:28N 53°32' E 009°57'0 0.0
2018-Feb-14 11:58N 53°32' E 009°57'0 0.0
2018-Feb-14 11:28N 53°32' E 009°57'0 0.0
2018-Feb-14 10:58N 53°32' E 009°57'0 0.0
2018-Feb-14 10:28N 53°32' E 009°57'0 0.0
2018-Feb-14 09:58N 53°32' E 009°57'0 0.0
2018-Feb-14 09:28N 53°32' E 009°57'0 0.0
2018-Feb-14 08:58N 53°32' E 009°57'0 0.0
2018-Feb-14 08:28N 53°32' E 009°57'0 0.1
2018-Feb-14 07:58N 53°32' E 009°57'0 0.1
2018-Feb-14 07:28N 53°32' E 009°57'0 0.0
2018-Feb-14 06:58N 53°32' E 009°57'0 0.0
2018-Feb-14 06:28N 53°32' E 009°57'0 0.0
2018-Feb-14 05:58N 53°32' E 009°57'0 0.0
2018-Feb-14 05:28N 53°32' E 009°57'0 0.0
2018-Feb-14 04:58N 53°32' E 009°57'0 0.0
2018-Feb-14 04:28N 53°32' E 009°57'0 0.0
2018-Feb-14 03:58N 53°32' E 009°57'0 0.0
2018-Feb-14 03:28N 53°32' E 009°57'0 0.0
2018-Feb-14 02:58N 53°32' E 009°57'0 0.0
2018-Feb-14 02:28N 53°32' E 009°57'0 0.0
2018-Feb-14 01:58N 53°32' E 009°57'0 0.1
2018-Feb-14 01:28N 53°32' E 009°57'0 0.0
2018-Feb-14 00:58N 53°32' E 009°57'0 0.1
2018-Feb-14 00:28N 53°32' E 009°57'0 0.0
2018-Feb-13 23:58N 53°32' E 009°57'0 0.0
2018-Feb-13 23:28N 53°32' E 009°57'0 0.0
2018-Feb-13 22:58N 53°32' E 009°57'0 0.0
2018-Feb-13 22:28N 53°32' E 009°57'0 0.0
2018-Feb-13 21:58N 53°32' E 009°57'0 0.0
2018-Feb-13 21:28N 53°32' E 009°57'0 0.1
2018-Feb-13 20:58N 53°32' E 009°57'0 0.0
2018-Feb-13 20:28N 53°32' E 009°57'0 0.0
2018-Feb-13 19:58N 53°32' E 009°57'0 0.0
2018-Feb-13 19:28N 53°32' E 009°57'0 0.0
2018-Feb-13 18:58N 53°32' E 009°57'0 0.0
2018-Feb-13 18:28N 53°32' E 009°57'0 0.0
2018-Feb-13 17:58N 53°32' E 009°57'0 0.0
2018-Feb-13 17:28N 53°32' E 009°57'0 0.0
2018-Feb-13 16:58N 53°32' E 009°57'0 0.0
2018-Feb-13 16:28N 53°32' E 009°57'0 0.0
2018-Feb-13 15:58N 53°32' E 009°57'0 0.1
2018-Feb-13 15:30N 53°32' E 009°57'1 1.3
2018-Feb-13 15:00N 53°32' E 009°57'3 5.9
2018-Feb-13 14:30N 53°33' E 009°52'4 8.5
2018-Feb-13 14:00N 53°34' E 009°45'510.8
2018-Feb-13 13:30N 53°36' E 009°36'611.3
2018-Feb-13 13:00N 53°40' E 009°31'612.6
2018-Feb-13 12:31N 53°45' E 009°24'714.8
2018-Feb-13 12:01N 53°52' E 009°18'612.7
2018-Feb-13 11:30N 53°53' E 009°07'713.1
2018-Feb-13 11:01N 53°51' E 008°57'713.8
2018-Feb-13 10:30N 53°51' E 008°45'713.8
2018-Feb-13 10:00N 53°57' E 008°38'918.2
2018-Feb-13 09:30N 53°59' E 008°23'918.3
2018-Feb-13 09:00N 53°59' E 008°08'917.6
2018-Feb-13 08:31N 54°03' E 007°54'11215.1
2018-Feb-13 01:04N 53°37' E 004°49'516.7
2018-Feb-13 00:46N 53°32' E 004°46'416.5
2018-Feb-13 00:30N 53°28' E 004°43'816.4
2018-Feb-13 00:00N 53°20' E 004°38'816.1
2018-Feb-12 23:30N 53°13' E 004°32'815.5
2018-Feb-12 23:00N 53°06' E 004°26'815.2
2018-Feb-12 22:30N 52°60' E 004°19'815.0
2018-Feb-12 22:00N 52°53' E 004°15'815.1
2018-Feb-12 21:30N 52°47' E 004°07'815.0
2018-Feb-12 21:00N 52°42' E 003°58'815.2
2018-Feb-12 20:30N 52°38' E 003°48'714.5
2018-Feb-12 20:00N 52°32' E 003°39'714.7
2018-Feb-12 19:30N 52°25' E 003°35'714.8
2018-Feb-12 19:00N 52°19' E 003°31'814.8
2018-Feb-12 18:30N 52°11' E 003°26'714.6
2018-Feb-12 18:00N 52°04' E 003°24'1414.9
2018-Feb-12 17:04N 51°51' E 003°20'115.7
2018-Feb-12 17:00N 51°50' E 003°19'713.8
2018-Feb-12 16:30N 51°44' E 003°14'5 9.6
2018-Feb-12 16:00N 51°39' E 003°12'917.3
2018-Feb-12 15:30N 51°31' E 003°06'815.7
2018-Feb-12 15:00N 51°25' E 002°59'917.4
2018-Feb-12 14:30N 51°24' E 003°13'918.1
2018-Feb-12 14:00N 51°25' E 003°28'611.5
2018-Feb-12 13:30N 51°26' E 003°37'4 8.9
2018-Feb-12 13:00N 51°24' E 003°43'612.5
2018-Feb-12 12:30N 51°21' E 003°52'612.3
2018-Feb-12 12:00N 51°26' E 003°58'4 8.0
2018-Feb-12 11:30N 51°23' E 004°03'611.1
2018-Feb-12 11:00N 51°24' E 004°11'5 9.1
2018-Feb-12 10:30N 51°20' E 004°16'3 4.7
2018-Feb-12 09:52N 51°17' E 004°16'0 0.0
2018-Feb-12 09:28N 51°17' E 004°16'0 0.0
2018-Feb-12 08:58N 51°17' E 004°16'0 0.0
2018-Feb-12 08:28N 51°17' E 004°16'0 0.0
2018-Feb-12 07:58N 51°17' E 004°16'0 0.0
2018-Feb-12 07:28N 51°17' E 004°16'0 0.0
2018-Feb-12 06:55N 51°17' E 004°16'0 0.0
2018-Feb-12 06:28N 51°17' E 004°16'0 0.0
2018-Feb-12 05:58N 51°17' E 004°16'0 0.0
2018-Feb-12 05:28N 51°17' E 004°16'0 0.0
2018-Feb-12 04:58N 51°17' E 004°16'0 0.0
2018-Feb-12 04:25N 51°17' E 004°16'0 0.0
2018-Feb-12 03:58N 51°17' E 004°16'0 0.0
2018-Feb-12 03:28N 51°17' E 004°16'0 0.0
2018-Feb-12 02:58N 51°17' E 004°16'0 0.0
2018-Feb-12 02:22N 51°17' E 004°16'0 0.0
2018-Feb-12 01:58N 51°17' E 004°16'0 0.0
2018-Feb-12 01:25N 51°17' E 004°16'0 0.0
2018-Feb-12 00:55N 51°17' E 004°16'0 0.0
2018-Feb-12 00:28N 51°17' E 004°16'0 0.0
2018-Feb-11 23:58N 51°17' E 004°16'0 0.0
2018-Feb-11 23:25N 51°17' E 004°16'0 0.0
2018-Feb-11 22:55N 51°17' E 004°16'0 0.0
2018-Feb-11 22:28N 51°17' E 004°16'0 0.0
2018-Feb-11 21:58N 51°17' E 004°16'0 0.0
2018-Feb-11 21:25N 51°17' E 004°16'0 0.0
2018-Feb-11 20:58N 51°17' E 004°16'0 0.0
2018-Feb-11 20:25N 51°17' E 004°16'0 0.0
2018-Feb-11 19:58N 51°17' E 004°16'0 0.0
2018-Feb-11 19:28N 51°17' E 004°16'0 0.0
2018-Feb-11 18:58N 51°17' E 004°16'0 0.0
2018-Feb-11 18:28N 51°17' E 004°16'0 0.0
2018-Feb-11 17:58N 51°17' E 004°16'0 0.0
2018-Feb-11 17:28N 51°17' E 004°16'0 0.0
2018-Feb-11 16:55N 51°17' E 004°16'0 0.0
2018-Feb-11 16:28N 51°17' E 004°16'0 0.0
2018-Feb-11 15:55N 51°17' E 004°16'0 0.0
2018-Feb-11 15:28N 51°17' E 004°16'0 0.0
2018-Feb-11 14:55N 51°17' E 004°16'0 0.0
2018-Feb-11 14:28N 51°17' E 004°16'0 0.0
2018-Feb-11 13:58N 51°17' E 004°16'0 0.0
2018-Feb-11 13:28N 51°17' E 004°16'0 0.0
2018-Feb-11 12:58N 51°17' E 004°16'0 0.0
2018-Feb-11 12:28N 51°17' E 004°16'0 0.0
2018-Feb-11 11:58N 51°17' E 004°16'0 0.0
2018-Feb-11 11:28N 51°17' E 004°16'0 0.0
2018-Feb-11 10:55N 51°17' E 004°16'0 0.0
2018-Feb-11 10:25N 51°17' E 004°16'0 0.1
2018-Feb-11 09:58N 51°17' E 004°16'0 0.1
2018-Feb-11 09:28N 51°17' E 004°16'0 0.0
2018-Feb-11 08:55N 51°17' E 004°16'0 0.0
2018-Feb-11 08:28N 51°17' E 004°16'0 0.0
2018-Feb-11 07:58N 51°17' E 004°16'0 0.0
2018-Feb-11 07:28N 51°17' E 004°16'0 0.0
2018-Feb-11 06:58N 51°17' E 004°16'0 0.0
2018-Feb-11 06:28N 51°17' E 004°16'0 0.0
2018-Feb-11 05:58N 51°17' E 004°16'0 0.0
2018-Feb-11 05:28N 51°17' E 004°16'0 0.0
2018-Feb-11 04:58N 51°17' E 004°16'0 0.0
2018-Feb-11 04:28N 51°17' E 004°16'0 0.0
2018-Feb-11 03:58N 51°17' E 004°16'0 0.0
2018-Feb-11 03:28N 51°17' E 004°16'0 0.0
2018-Feb-11 02:58N 51°17' E 004°16'0 0.0
2018-Feb-11 02:28N 51°17' E 004°16'0 0.0
2018-Feb-11 01:58N 51°17' E 004°16'0 0.0
2018-Feb-11 01:28N 51°17' E 004°16'0 0.0
2018-Feb-11 00:52N 51°17' E 004°16'0 0.0
2018-Feb-11 00:30N 51°17' E 004°16'1 1.7
2018-Feb-11 00:00N 51°18' E 004°16'1 2.8
2018-Feb-10 23:30N 51°20' E 004°16'4 7.5
2018-Feb-10 23:00N 51°23' E 004°13'5 9.3
2018-Feb-10 22:30N 51°22' E 004°05'5 9.7
2018-Feb-10 22:00N 51°26' E 004°01'611.2
2018-Feb-10 21:30N 51°22' E 003°55'612.2
2018-Feb-10 21:00N 51°22' E 003°45'611.4
2018-Feb-10 20:31N 51°26' E 003°39'4 8.6
2018-Feb-10 20:01N 51°25' E 003°33'5 9.9
2018-Feb-10 19:30N 51°25' E 003°25'612.0
2018-Feb-10 19:00N 51°25' E 003°15'713.8
2018-Feb-10 18:30N 51°24' E 003°04'714.4
2018-Feb-10 18:00N 51°25' E 002°53'612.6
2018-Feb-10 17:31N 51°23' E 002°43'5 8.4
2018-Feb-10 16:58N 51°22' E 002°36'2 3.5
2018-Feb-10 16:30N 51°22' E 002°34'1 1.9
2018-Feb-10 16:01N 51°22' E 002°32'3 5.9
2018-Feb-10 15:30N 51°22' E 002°28'4 8.5
2018-Feb-10 15:01N 51°20' E 002°22'4 8.9
2018-Feb-10 14:30N 51°17' E 002°16'4 8.6
2018-Feb-10 14:00N 51°15' E 002°10'5 9.1
2018-Feb-10 13:30N 51°13' E 002°03'510.6
2018-Feb-10 13:00N 51°11' E 001°56'612.5
2018-Feb-10 12:30N 51°08' E 001°47'612.8
2018-Feb-10 12:00N 51°03' E 001°40'613.0
2018-Feb-10 11:30N 50°59' E 001°33'612.9
2018-Feb-10 11:00N 50°53' E 001°27'713.0
2018-Feb-10 10:30N 50°47' E 001°24'712.8
2018-Feb-10 09:59N 50°41' E 001°19'713.6
2018-Feb-10 09:30N 50°36' E 001°12'3713.5
2018-Feb-10 06:47N 50°23' E 000°19'414.2
2018-Feb-10 06:28N 50°22' E 000°12'714.5
2018-Feb-10 06:00N 50°20' E 000°02'816.3
2018-Feb-10 05:30N 50°18' W 000°11'816.6
2018-Feb-10 05:00N 50°16' W 000°23'816.8
2018-Feb-10 04:30N 50°13' W 000°36'817.0
2018-Feb-10 04:00N 50°11' W 000°49'917.1
2018-Feb-10 03:31N 50°09' W 001°01'917.1
2018-Feb-10 03:00N 50°07' W 001°14'917.1
2018-Feb-10 02:31N 50°05' W 001°27'816.9
2018-Feb-10 02:00N 50°03' W 001°40'816.8
2018-Feb-10 01:30N 50°01' W 001°53'816.5
2018-Feb-10 01:01N 49°59' W 002°05'816.1
2018-Feb-10 00:30N 49°57' W 002°17'3215.5
2018-Feb-09 22:27N 49°47' W 003°04'1415.2
2018-Feb-09 21:30N 49°39' W 003°23'6714.9
2018-Feb-09 17:00N 49°04' W 004°51'  

Dump ship's entire track history